sensor_id;sensor_type;location;lat;lon;timestamp;pressure;altitude;pressure_sealevel;temperature;humidity
9129;BME280;4599;50.906;6.786;2023-08-07T00:01:04;99944.47;;;12.26;90.44
9129;BME280;4599;50.906;6.786;2023-08-07T00:05:26;99953.09;;;12.15;89.83
9129;BME280;4599;50.906;6.786;2023-08-07T00:09:48;99924.06;;;12.15;90.00
9129;BME280;4599;50.906;6.786;2023-08-07T00:14:10;99936.47;;;12.19;89.83
9129;BME280;4599;50.906;6.786;2023-08-07T00:18:35;99932.50;;;12.06;89.57
9129;BME280;4599;50.906;6.786;2023-08-07T00:22:57;99930.75;;;12.06;89.93
9129;BME280;4599;50.906;6.786;2023-08-07T00:27:19;99939.97;;;12.09;89.79
9129;BME280;4599;50.906;6.786;2023-08-07T00:31:40;99936.19;;;12.13;89.70
9129;BME280;4599;50.906;6.786;2023-08-07T00:36:04;99938.34;;;12.08;89.63
9129;BME280;4599;50.906;6.786;2023-08-07T00:40:26;99943.72;;;12.05;89.15
9129;BME280;4599;50.906;6.786;2023-08-07T00:44:48;99955.78;;;12.04;90.29
9129;BME280;4599;50.906;6.786;2023-08-07T00:49:11;99958.41;;;11.93;91.35
9129;BME280;4599;50.906;6.786;2023-08-07T00:53:37;99952.38;;;12.04;90.09
9129;BME280;4599;50.906;6.786;2023-08-07T00:58:00;99961.00;;;11.93;90.91
9129;BME280;4599;50.906;6.786;2023-08-07T01:02:22;99959.53;;;12.00;90.99
9129;BME280;4599;50.906;6.786;2023-08-07T01:06:44;99954.66;;;11.97;90.82
9129;BME280;4599;50.906;6.786;2023-08-07T01:11:20;99952.59;;;11.91;90.53
9129;BME280;4599;50.906;6.786;2023-08-07T01:15:46;99964.88;;;11.87;90.92
9129;BME280;4599;50.906;6.786;2023-08-07T01:20:12;99962.69;;;11.83;89.93
9129;BME280;4599;50.906;6.786;2023-08-07T01:24:37;99964.69;;;12.00;89.67
9129;BME280;4599;50.906;6.786;2023-08-07T01:29:06;99934.69;;;11.80;90.03
9129;BME280;4599;50.906;6.786;2023-08-07T01:33:38;99948.97;;;11.93;89.07
9129;BME280;4599;50.906;6.786;2023-08-07T01:38:02;99953.84;;;11.96;88.28
9129;BME280;4599;50.906;6.786;2023-08-07T01:42:25;99957.38;;;12.05;88.59
9129;BME280;4599;50.906;6.786;2023-08-07T01:46:47;99960.09;;;12.04;88.49
9129;BME280;4599;50.906;6.786;2023-08-07T01:51:09;99962.41;;;12.07;88.17
9129;BME280;4599;50.906;6.786;2023-08-07T01:55:31;99955.78;;;12.04;87.87
9129;BME280;4599;50.906;6.786;2023-08-07T01:59:54;99966.47;;;12.09;87.63
9129;BME280;4599;50.906;6.786;2023-08-07T02:04:17;99964.69;;;12.00;88.16
9129;BME280;4599;50.906;6.786;2023-08-07T02:08:39;99970.63;;;12.01;86.63
9129;BME280;4599;50.906;6.786;2023-08-07T02:13:01;99974.16;;;12.09;87.58
9129;BME280;4599;50.906;6.786;2023-08-07T02:17:24;99976.22;;;12.15;87.24
9129;BME280;4599;50.906;6.786;2023-08-07T02:21:47;99953.03;;;11.96;87.26
9129;BME280;4599;50.906;6.786;2023-08-07T02:26:09;99979.03;;;12.12;87.20
9129;BME280;4599;50.906;6.786;2023-08-07T02:30:31;99990.38;;;12.10;86.71
9129;BME280;4599;50.906;6.786;2023-08-07T02:34:54;99991.50;;;12.17;86.53
9129;BME280;4599;50.906;6.786;2023-08-07T02:39:16;99995.97;;;12.15;86.74
9129;BME280;4599;50.906;6.786;2023-08-07T02:43:38;99985.56;;;12.16;86.22
9129;BME280;4599;50.906;6.786;2023-08-07T02:48:00;99986.63;;;12.14;86.41
9129;BME280;4599;50.906;6.786;2023-08-07T02:52:23;99999.19;;;12.07;86.78
9129;BME280;4599;50.906;6.786;2023-08-07T02:56:46;99986.44;;;12.06;87.15
9129;BME280;4599;50.906;6.786;2023-08-07T03:01:08;99991.47;;;12.07;87.42
9129;BME280;4599;50.906;6.786;2023-08-07T03:05:30;99998.09;;;12.10;87.32
9129;BME280;4599;50.906;6.786;2023-08-07T03:09:54;99988.09;;;12.07;87.76
9129;BME280;4599;50.906;6.786;2023-08-07T03:14:16;99996.53;;;11.97;88.69
9129;BME280;4599;50.906;6.786;2023-08-07T03:18:38;100005.19;;;11.96;88.86
9129;BME280;4599;50.906;6.786;2023-08-07T03:23:00;100005.69;;;11.90;88.69
9129;BME280;4599;50.906;6.786;2023-08-07T03:27:23;99997.88;;;11.92;88.85
9129;BME280;4599;50.906;6.786;2023-08-07T03:31:45;100001.06;;;11.84;89.54
9129;BME280;4599;50.906;6.786;2023-08-07T03:36:07;100008.41;;;11.89;88.73
9129;BME280;4599;50.906;6.786;2023-08-07T03:40:29;100009.91;;;11.91;89.13
9129;BME280;4599;50.906;6.786;2023-08-07T03:44:52;100004.56;;;11.83;89.09
9129;BME280;4599;50.906;6.786;2023-08-07T03:49:14;100012.34;;;11.93;88.82
9129;BME280;4599;50.906;6.786;2023-08-07T03:53:36;100018.41;;;11.92;89.04
9129;BME280;4599;50.906;6.786;2023-08-07T03:57:58;100017.91;;;11.77;90.79
9129;BME280;4599;50.906;6.786;2023-08-07T04:02:21;100024.22;;;11.73;91.37
9129;BME280;4599;50.906;6.786;2023-08-07T04:06:43;100024.53;;;11.80;91.39
9129;BME280;4599;50.906;6.786;2023-08-07T04:11:05;100023.63;;;11.70;92.29
9129;BME280;4599;50.906;6.786;2023-08-07T04:15:27;100026.13;;;11.71;92.77
9129;BME280;4599;50.906;6.786;2023-08-07T04:19:50;100016.69;;;11.72;92.04
9129;BME280;4599;50.906;6.786;2023-08-07T04:24:13;100027.94;;;11.80;92.58
9129;BME280;4599;50.906;6.786;2023-08-07T04:28:35;100031.81;;;11.95;91.99
9129;BME280;4599;50.906;6.786;2023-08-07T04:32:57;100041.88;;;11.87;91.46
9129;BME280;4599;50.906;6.786;2023-08-07T04:37:21;100041.16;;;11.76;91.83
9129;BME280;4599;50.906;6.786;2023-08-07T04:41:43;100039.16;;;11.79;92.03
9129;BME280;4599;50.906;6.786;2023-08-07T04:46:05;100051.28;;;11.77;91.65
9129;BME280;4599;50.906;6.786;2023-08-07T04:50:29;100050.56;;;11.86;90.67
9129;BME280;4599;50.906;6.786;2023-08-07T04:54:52;100037.06;;;11.94;90.65
9129;BME280;4599;50.906;6.786;2023-08-07T04:59:16;100043.84;;;11.95;90.53
9129;BME280;4599;50.906;6.786;2023-08-07T05:03:38;100032.63;;;11.75;89.91
9129;BME280;4599;50.906;6.786;2023-08-07T05:08:00;100031.44;;;11.79;90.13
9129;BME280;4599;50.906;6.786;2023-08-07T05:12:23;100048.47;;;11.69;89.54
9129;BME280;4599;50.906;6.786;2023-08-07T05:16:46;100042.19;;;11.73;88.63
9129;BME280;4599;50.906;6.786;2023-08-07T05:21:08;100037.22;;;11.72;90.18
9129;BME280;4599;50.906;6.786;2023-08-07T05:25:30;100034.03;;;11.79;89.06
9129;BME280;4599;50.906;6.786;2023-08-07T05:29:53;100037.75;;;11.96;89.32
9129;BME280;4599;50.906;6.786;2023-08-07T05:34:17;100031.19;;;12.03;87.71
9129;BME280;4599;50.906;6.786;2023-08-07T05:38:39;100046.72;;;12.02;88.12
9129;BME280;4599;50.906;6.786;2023-08-07T05:43:02;100043.72;;;11.96;87.80
9129;BME280;4599;50.906;6.786;2023-08-07T05:47:26;100039.63;;;11.94;87.89
9129;BME280;4599;50.906;6.786;2023-08-07T05:51:49;100036.94;;;11.95;87.86
9129;BME280;4599;50.906;6.786;2023-08-07T05:56:11;100055.75;;;11.96;86.49
9129;BME280;4599;50.906;6.786;2023-08-07T06:00:33;100059.81;;;11.98;86.93
9129;BME280;4599;50.906;6.786;2023-08-07T06:04:58;100065.00;;;12.08;86.30
9129;BME280;4599;50.906;6.786;2023-08-07T06:09:20;100064.75;;;11.90;86.58
9129;BME280;4599;50.906;6.786;2023-08-07T06:13:42;100068.69;;;11.94;86.48
9129;BME280;4599;50.906;6.786;2023-08-07T06:18:03;100074.69;;;11.84;88.04
9129;BME280;4599;50.906;6.786;2023-08-07T06:22:27;100072.22;;;11.93;87.90
9129;BME280;4599;50.906;6.786;2023-08-07T06:26:49;100068.84;;;11.72;89.30
9129;BME280;4599;50.906;6.786;2023-08-07T06:31:12;100074.41;;;11.66;88.96
9129;BME280;4599;50.906;6.786;2023-08-07T06:35:37;100059.25;;;11.63;88.20
9129;BME280;4599;50.906;6.786;2023-08-07T06:40:00;100083.47;;;11.81;89.11
9129;BME280;4599;50.906;6.786;2023-08-07T06:44:22;100088.03;;;11.78;89.92
9129;BME280;4599;50.906;6.786;2023-08-07T06:48:44;100083.22;;;11.84;89.44
9129;BME280;4599;50.906;6.786;2023-08-07T06:53:06;100105.66;;;11.82;89.34
9129;BME280;4599;50.906;6.786;2023-08-07T06:57:30;100091.69;;;11.96;90.08
9129;BME280;4599;50.906;6.786;2023-08-07T07:01:52;100115.34;;;11.79;90.06
9129;BME280;4599;50.906;6.786;2023-08-07T07:06:14;100097.81;;;11.84;89.61
9129;BME280;4599;50.906;6.786;2023-08-07T07:10:36;100111.66;;;11.92;89.38
9129;BME280;4599;50.906;6.786;2023-08-07T07:15:00;100115.63;;;11.96;88.75
9129;BME280;4599;50.906;6.786;2023-08-07T07:19:22;100124.06;;;11.87;89.91
9129;BME280;4599;50.906;6.786;2023-08-07T07:23:44;100128.38;;;11.87;89.59
9129;BME280;4599;50.906;6.786;2023-08-07T07:28:06;100133.66;;;11.85;90.35
9129;BME280;4599;50.906;6.786;2023-08-07T07:32:32;100145.06;;;11.92;89.68
9129;BME280;4599;50.906;6.786;2023-08-07T07:36:54;100149.31;;;12.03;90.15
9129;BME280;4599;50.906;6.786;2023-08-07T07:41:16;100171.56;;;12.14;89.29
9129;BME280;4599;50.906;6.786;2023-08-07T07:45:38;100156.13;;;12.25;88.97
9129;BME280;4599;50.906;6.786;2023-08-07T07:50:07;100162.53;;;12.40;89.23
9129;BME280;4599;50.906;6.786;2023-08-07T07:54:30;100155.47;;;12.53;87.71
9129;BME280;4599;50.906;6.786;2023-08-07T07:58:52;100164.78;;;12.75;87.40
9129;BME280;4599;50.906;6.786;2023-08-07T08:03:15;100167.44;;;12.94;87.14
9129;BME280;4599;50.906;6.786;2023-08-07T08:07:39;100158.09;;;13.14;85.41
9129;BME280;4599;50.906;6.786;2023-08-07T08:12:01;100182.91;;;13.24;85.43
9129;BME280;4599;50.906;6.786;2023-08-07T08:16:23;100184.44;;;13.46;86.50
9129;BME280;4599;50.906;6.786;2023-08-07T08:20:45;100183.91;;;13.42;85.04
9129;BME280;4599;50.906;6.786;2023-08-07T08:25:13;100197.91;;;13.69;83.61
9129;BME280;4599;50.906;6.786;2023-08-07T08:29:37;100208.19;;;13.78;84.39
9129;BME280;4599;50.906;6.786;2023-08-07T08:33:59;100205.03;;;13.46;83.72
9129;BME280;4599;50.906;6.786;2023-08-07T08:38:23;100208.84;;;13.52;84.56
9129;BME280;4599;50.906;6.786;2023-08-07T08:42:46;100214.44;;;13.57;83.55
9129;BME280;4599;50.906;6.786;2023-08-07T08:47:10;100219.63;;;13.95;83.67
9129;BME280;4599;50.906;6.786;2023-08-07T08:51:32;100219.75;;;14.32;81.47
9129;BME280;4599;50.906;6.786;2023-08-07T08:55:55;100225.72;;;14.80;80.92
9129;BME280;4599;50.906;6.786;2023-08-07T09:00:22;100217.00;;;14.81;77.81
9129;BME280;4599;50.906;6.786;2023-08-07T09:04:44;100240.16;;;15.37;78.12
9129;BME280;4599;50.906;6.786;2023-08-07T09:09:08;100223.88;;;15.00;79.58
9129;BME280;4599;50.906;6.786;2023-08-07T09:13:32;100242.81;;;14.72;79.38
9129;BME280;4599;50.906;6.786;2023-08-07T09:17:56;100250.31;;;14.56;79.11
9129;BME280;4599;50.906;6.786;2023-08-07T09:22:19;100267.25;;;14.29;79.35
9129;BME280;4599;50.906;6.786;2023-08-07T09:26:42;100272.53;;;14.18;81.11
9129;BME280;4599;50.906;6.786;2023-08-07T09:31:06;100240.75;;;13.89;82.34
9129;BME280;4599;50.906;6.786;2023-08-07T09:35:31;100294.25;;;14.16;82.38
9129;BME280;4599;50.906;6.786;2023-08-07T09:39:53;100296.50;;;13.90;83.23
9129;BME280;4599;50.906;6.786;2023-08-07T09:44:15;100283.44;;;14.41;83.69
9129;BME280;4599;50.906;6.786;2023-08-07T09:48:39;100290.66;;;15.86;78.58
9129;BME280;4599;50.906;6.786;2023-08-07T09:53:03;100291.19;;;18.22;71.72
9129;BME280;4599;50.906;6.786;2023-08-07T09:57:25;100277.25;;;19.04;66.66
9129;BME280;4599;50.906;6.786;2023-08-07T10:01:47;100292.53;;;18.82;66.94
9129;BME280;4599;50.906;6.786;2023-08-07T10:06:10;100291.47;;;19.79;64.07
9129;BME280;4599;50.906;6.786;2023-08-07T10:10:34;100296.28;;;19.90;61.83
9129;BME280;4599;50.906;6.786;2023-08-07T10:14:59;100294.66;;;21.97;57.44
9129;BME280;4599;50.906;6.786;2023-08-07T10:19:21;100274.53;;;23.10;51.35
9129;BME280;4599;50.906;6.786;2023-08-07T10:23:46;100292.47;;;23.48;47.96
9129;BME280;4599;50.906;6.786;2023-08-07T10:28:13;100292.56;;;22.71;48.34
9129;BME280;4599;50.906;6.786;2023-08-07T10:32:39;100292.47;;;24.02;46.87
9129;BME280;4599;50.906;6.786;2023-08-07T10:37:06;100291.53;;;23.62;45.34
9129;BME280;4599;50.906;6.786;2023-08-07T10:41:38;100296.00;;;22.71;45.27
9129;BME280;4599;50.906;6.786;2023-08-07T10:46:05;100284.53;;;23.00;42.96
9129;BME280;4599;50.906;6.786;2023-08-07T10:50:30;100297.00;;;20.75;48.07
9129;BME280;4599;50.906;6.786;2023-08-07T10:54:54;100306.09;;;19.33;51.92
9129;BME280;4599;50.906;6.786;2023-08-07T10:59:16;100318.31;;;18.92;56.41
9129;BME280;4599;50.906;6.786;2023-08-07T11:03:43;100311.34;;;20.25;53.14
9129;BME280;4599;50.906;6.786;2023-08-07T11:08:06;100309.38;;;22.41;48.75
9129;BME280;4599;50.906;6.786;2023-08-07T11:12:28;100314.13;;;21.80;46.81
9129;BME280;4599;50.906;6.786;2023-08-07T11:16:52;100321.25;;;20.30;50.68
9129;BME280;4599;50.906;6.786;2023-08-07T11:21:16;100309.31;;;22.55;47.17
9129;BME280;4599;50.906;6.786;2023-08-07T11:25:38;100315.28;;;24.21;40.90
9129;BME280;4599;50.906;6.786;2023-08-07T11:30:00;100307.41;;;22.92;41.21
9129;BME280;4599;50.906;6.786;2023-08-07T11:34:22;100295.97;;;24.48;40.87
9129;BME280;4599;50.906;6.786;2023-08-07T11:38:45;100311.75;;;23.88;36.54
9129;BME280;4599;50.906;6.786;2023-08-07T11:43:19;100309.69;;;24.57;37.30
9129;BME280;4599;50.906;6.786;2023-08-07T11:48:03;100312.88;;;24.59;35.03
9129;BME280;4599;50.906;6.786;2023-08-07T11:52:42;100316.13;;;24.61;35.79
9129;BME280;4599;50.906;6.786;2023-08-07T11:57:15;100310.84;;;25.20;35.06
9129;BME280;4599;50.906;6.786;2023-08-07T12:01:38;100317.91;;;25.13;32.28
9129;BME280;4599;50.906;6.786;2023-08-07T12:06:03;100305.28;;;27.29;29.71
9129;BME280;4599;50.906;6.786;2023-08-07T12:10:26;100314.22;;;25.40;33.21
9129;BME280;4599;50.906;6.786;2023-08-07T12:14:54;100307.56;;;27.92;29.02
9129;BME280;4599;50.906;6.786;2023-08-07T12:19:16;100307.81;;;30.16;26.21
9129;BME280;4599;50.906;6.786;2023-08-07T12:23:39;100320.28;;;29.36;25.52
9129;BME280;4599;50.906;6.786;2023-08-07T12:28:05;100316.25;;;27.81;28.71
9129;BME280;4599;50.906;6.786;2023-08-07T12:32:28;100316.09;;;24.28;36.20
9129;BME280;4599;50.906;6.786;2023-08-07T12:36:51;100329.66;;;22.60;39.75
9129;BME280;4599;50.906;6.786;2023-08-07T12:41:12;100335.50;;;24.99;33.21
9129;BME280;4599;50.906;6.786;2023-08-07T12:45:37;100315.38;;;29.96;26.50
9129;BME280;4599;50.906;6.786;2023-08-07T12:50:33;100319.28;;;31.27;24.22
9129;BME280;4599;50.906;6.786;2023-08-07T12:54:56;100321.38;;;29.91;25.82
9129;BME280;4599;50.906;6.786;2023-08-07T12:59:18;100314.59;;;29.84;26.94
9129;BME280;4599;50.906;6.786;2023-08-07T13:03:40;100319.94;;;29.32;26.44
9129;BME280;4599;50.906;6.786;2023-08-07T13:08:04;100320.06;;;28.91;28.24
9129;BME280;4599;50.906;6.786;2023-08-07T13:12:28;100334.63;;;25.32;32.90
9129;BME280;4599;50.906;6.786;2023-08-07T13:16:50;100325.53;;;23.62;36.25
9129;BME280;4599;50.906;6.786;2023-08-07T13:21:12;100324.75;;;23.27;38.42
9129;BME280;4599;50.906;6.786;2023-08-07T13:25:36;100314.78;;;21.53;42.37
9129;BME280;4599;50.906;6.786;2023-08-07T13:29:59;100332.97;;;20.79;46.12
9129;BME280;4599;50.906;6.786;2023-08-07T13:34:21;100333.53;;;20.67;46.00
9129;BME280;4599;50.906;6.786;2023-08-07T13:38:45;100331.53;;;24.10;38.24
9129;BME280;4599;50.906;6.786;2023-08-07T13:43:09;100338.09;;;23.11;39.25
9129;BME280;4599;50.906;6.786;2023-08-07T13:47:31;100350.19;;;20.80;51.83
9129;BME280;4599;50.906;6.786;2023-08-07T13:51:54;100365.69;;;19.43;56.90
9129;BME280;4599;50.906;6.786;2023-08-07T13:56:17;100347.06;;;21.22;51.18
9129;BME280;4599;50.906;6.786;2023-08-07T14:00:47;100339.72;;;28.53;35.28
9129;BME280;4599;50.906;6.786;2023-08-07T14:05:09;100342.63;;;27.74;34.52
9129;BME280;4599;50.906;6.786;2023-08-07T14:09:33;100342.72;;;24.38;41.47
9129;BME280;4599;50.906;6.786;2023-08-07T14:13:55;100342.75;;;24.84;39.36
9129;BME280;4599;50.906;6.786;2023-08-07T14:18:19;100348.25;;;22.14;46.37
9129;BME280;4599;50.906;6.786;2023-08-07T14:22:41;100359.41;;;20.68;46.08
9129;BME280;4599;50.906;6.786;2023-08-07T14:27:04;100361.47;;;20.27;47.03
9129;BME280;4599;50.906;6.786;2023-08-07T14:31:26;100367.75;;;20.02;49.05
9129;BME280;4599;50.906;6.786;2023-08-07T14:35:49;100372.09;;;19.79;50.40
9129;BME280;4599;50.906;6.786;2023-08-07T14:40:11;100366.53;;;19.19;52.65
9129;BME280;4599;50.906;6.786;2023-08-07T14:44:33;100363.84;;;19.67;53.07
9129;BME280;4599;50.906;6.786;2023-08-07T14:48:55;100378.81;;;20.35;51.33
9129;BME280;4599;50.906;6.786;2023-08-07T14:53:18;100364.50;;;20.39;50.77
9129;BME280;4599;50.906;6.786;2023-08-07T14:57:40;100359.50;;;20.29;49.69
9129;BME280;4599;50.906;6.786;2023-08-07T15:02:03;100362.84;;;19.76;49.18
9129;BME280;4599;50.906;6.786;2023-08-07T15:06:26;100365.53;;;20.22;50.62
9129;BME280;4599;50.906;6.786;2023-08-07T15:10:51;100356.25;;;19.97;49.90
9129;BME280;4599;50.906;6.786;2023-08-07T15:15:13;100357.78;;;19.75;50.45
9129;BME280;4599;50.906;6.786;2023-08-07T15:19:35;100354.09;;;20.00;51.13
9129;BME280;4599;50.906;6.786;2023-08-07T15:23:57;100351.66;;;19.99;51.87
9129;BME280;4599;50.906;6.786;2023-08-07T15:28:20;100357.94;;;19.81;49.51
9129;BME280;4599;50.906;6.786;2023-08-07T15:32:42;100351.72;;;19.44;50.46
9129;BME280;4599;50.906;6.786;2023-08-07T15:37:06;100357.00;;;19.66;51.06
9129;BME280;4599;50.906;6.786;2023-08-07T15:41:28;100345.66;;;19.59;48.66
9129;BME280;4599;50.906;6.786;2023-08-07T15:45:52;100344.06;;;19.89;46.62
9129;BME280;4599;50.906;6.786;2023-08-07T15:50:15;100346.09;;;20.10;47.38
9129;BME280;4599;50.906;6.786;2023-08-07T15:54:37;100352.91;;;19.80;44.59
9129;BME280;4599;50.906;6.786;2023-08-07T15:58:59;100366.81;;;19.32;47.19
9129;BME280;4599;50.906;6.786;2023-08-07T16:03:22;100364.66;;;19.68;47.32
9129;BME280;4599;50.906;6.786;2023-08-07T16:07:45;100357.94;;;19.73;47.50
9129;BME280;4599;50.906;6.786;2023-08-07T16:12:08;100358.25;;;19.78;46.73
9129;BME280;4599;50.906;6.786;2023-08-07T16:16:30;100356.38;;;19.64;47.18
9129;BME280;4599;50.906;6.786;2023-08-07T16:20:54;100350.38;;;19.56;47.92
9129;BME280;4599;50.906;6.786;2023-08-07T16:25:16;100359.50;;;19.52;46.56
9129;BME280;4599;50.906;6.786;2023-08-07T16:29:38;100343.44;;;19.32;46.65
9129;BME280;4599;50.906;6.786;2023-08-07T16:34:01;100353.97;;;19.38;45.66
9129;BME280;4599;50.906;6.786;2023-08-07T16:38:25;100356.28;;;19.25;46.97
9129;BME280;4599;50.906;6.786;2023-08-07T16:42:48;100355.16;;;19.04;47.78
9129;BME280;4599;50.906;6.786;2023-08-07T16:47:10;100350.94;;;19.11;46.62
9129;BME280;4599;50.906;6.786;2023-08-07T16:51:32;100358.09;;;18.93;48.62
9129;BME280;4599;50.906;6.786;2023-08-07T16:55:55;100345.44;;;19.06;49.95
9129;BME280;4599;50.906;6.786;2023-08-07T17:00:18;100346.41;;;18.88;50.04
9129;BME280;4599;50.906;6.786;2023-08-07T17:04:42;100356.66;;;18.66;49.52
9129;BME280;4599;50.906;6.786;2023-08-07T17:09:04;100358.75;;;18.62;50.40
9129;BME280;4599;50.906;6.786;2023-08-07T17:13:30;100340.75;;;18.53;50.01
9129;BME280;4599;50.906;6.786;2023-08-07T17:17:53;100361.16;;;18.64;50.68
9129;BME280;4599;50.906;6.786;2023-08-07T17:22:15;100361.38;;;18.70;50.80
9129;BME280;4599;50.906;6.786;2023-08-07T17:26:37;100354.38;;;18.63;52.08
9129;BME280;4599;50.906;6.786;2023-08-07T17:31:01;100357.41;;;18.50;51.41
9129;BME280;4599;50.906;6.786;2023-08-07T17:35:23;100354.13;;;18.32;51.48
9129;BME280;4599;50.906;6.786;2023-08-07T17:39:46;100356.44;;;18.35;54.61
9129;BME280;4599;50.906;6.786;2023-08-07T17:44:09;100364.47;;;18.16;52.56
9129;BME280;4599;50.906;6.786;2023-08-07T17:48:32;100358.00;;;18.20;53.60
9129;BME280;4599;50.906;6.786;2023-08-07T17:52:55;100354.25;;;18.14;52.80
9129;BME280;4599;50.906;6.786;2023-08-07T17:57:17;100359.09;;;18.09;53.02
9129;BME280;4599;50.906;6.786;2023-08-07T18:01:40;100351.22;;;18.27;52.96
9129;BME280;4599;50.906;6.786;2023-08-07T18:06:03;100351.69;;;18.22;53.44
9129;BME280;4599;50.906;6.786;2023-08-07T18:10:25;100350.78;;;17.98;54.84
9129;BME280;4599;50.906;6.786;2023-08-07T18:14:47;100343.25;;;17.78;55.36
9129;BME280;4599;50.906;6.786;2023-08-07T18:19:09;100347.81;;;17.76;55.51
9129;BME280;4599;50.906;6.786;2023-08-07T18:23:33;100347.63;;;17.70;56.80
9129;BME280;4599;50.906;6.786;2023-08-07T18:27:54;100345.22;;;17.51;57.76
9129;BME280;4599;50.906;6.786;2023-08-07T18:32:17;100322.59;;;17.27;56.99
9129;BME280;4599;50.906;6.786;2023-08-07T18:36:39;100350.16;;;17.36;58.10
9129;BME280;4599;50.906;6.786;2023-08-07T18:41:03;100345.00;;;17.10;60.49
9129;BME280;4599;50.906;6.786;2023-08-07T18:45:25;100347.06;;;17.07;59.64
9129;BME280;4599;50.906;6.786;2023-08-07T18:49:47;100353.94;;;16.98;60.10
9129;BME280;4599;50.906;6.786;2023-08-07T18:54:09;100361.38;;;16.93;59.49
9129;BME280;4599;50.906;6.786;2023-08-07T18:58:33;100366.63;;;16.83;59.80
9129;BME280;4599;50.906;6.786;2023-08-07T19:02:56;100364.72;;;16.85;60.56
9129;BME280;4599;50.906;6.786;2023-08-07T19:07:18;100360.50;;;16.67;61.03
9129;BME280;4599;50.906;6.786;2023-08-07T19:11:43;100364.34;;;16.63;63.12
9129;BME280;4599;50.906;6.786;2023-08-07T19:16:07;100362.19;;;16.58;61.54
9129;BME280;4599;50.906;6.786;2023-08-07T19:20:30;100364.72;;;16.40;62.82
9129;BME280;4599;50.906;6.786;2023-08-07T19:24:52;100367.03;;;16.26;62.57
9129;BME280;4599;50.906;6.786;2023-08-07T19:29:14;100363.97;;;16.13;63.93
9129;BME280;4599;50.906;6.786;2023-08-07T19:33:40;100371.13;;;15.91;64.44
9129;BME280;4599;50.906;6.786;2023-08-07T19:38:02;100377.75;;;15.76;65.42
9129;BME280;4599;50.906;6.786;2023-08-07T19:42:24;100375.88;;;15.69;66.11
9129;BME280;4599;50.906;6.786;2023-08-07T19:46:48;100377.41;;;15.52;67.58
9129;BME280;4599;50.906;6.786;2023-08-07T19:51:12;100368.50;;;15.18;68.97
9129;BME280;4599;50.906;6.786;2023-08-07T19:55:34;100372.59;;;14.91;70.72
9129;BME280;4599;50.906;6.786;2023-08-07T19:59:56;100366.91;;;14.98;70.85
9129;BME280;4599;50.906;6.786;2023-08-07T20:04:18;100373.28;;;14.93;72.40
9129;BME280;4599;50.906;6.786;2023-08-07T20:08:41;100377.75;;;14.91;72.61
9129;BME280;4599;50.906;6.786;2023-08-07T20:13:03;100375.06;;;14.83;71.91
9129;BME280;4599;50.906;6.786;2023-08-07T20:17:25;100373.28;;;14.74;71.63
9129;BME280;4599;50.906;6.786;2023-08-07T20:21:47;100373.00;;;14.68;71.98
9129;BME280;4599;50.906;6.786;2023-08-07T20:26:10;100367.97;;;14.85;70.74
9129;BME280;4599;50.906;6.786;2023-08-07T20:30:32;100374.22;;;14.92;71.42
9129;BME280;4599;50.906;6.786;2023-08-07T20:34:54;100365.94;;;15.08;70.84
9129;BME280;4599;50.906;6.786;2023-08-07T20:39:17;100359.81;;;15.00;72.29
9129;BME280;4599;50.906;6.786;2023-08-07T20:43:40;100362.81;;;15.05;70.94
9129;BME280;4599;50.906;6.786;2023-08-07T20:48:03;100357.59;;;15.24;71.43
9129;BME280;4599;50.906;6.786;2023-08-07T20:52:26;100351.38;;;15.17;72.25
9129;BME280;4599;50.906;6.786;2023-08-07T20:56:48;100342.13;;;15.24;70.52
9129;BME280;4599;50.906;6.786;2023-08-07T21:01:11;100340.50;;;15.13;71.31
9129;BME280;4599;50.906;6.786;2023-08-07T21:05:33;100340.78;;;15.10;74.06
9129;BME280;4599;50.906;6.786;2023-08-07T21:09:57;100343.50;;;15.18;73.03
9129;BME280;4599;50.906;6.786;2023-08-07T21:14:19;100341.19;;;15.06;74.72
9129;BME280;4599;50.906;6.786;2023-08-07T21:18:43;100331.06;;;14.94;75.28
9129;BME280;4599;50.906;6.786;2023-08-07T21:23:05;100341.09;;;14.98;75.11
9129;BME280;4599;50.906;6.786;2023-08-07T21:27:27;100340.81;;;14.81;75.59
9129;BME280;4599;50.906;6.786;2023-08-07T21:31:49;100337.03;;;14.57;75.92
9129;BME280;4599;50.906;6.786;2023-08-07T21:36:12;100338.25;;;14.43;76.95
9129;BME280;4599;50.906;6.786;2023-08-07T21:40:34;100330.94;;;14.48;76.61
9129;BME280;4599;50.906;6.786;2023-08-07T21:44:56;100328.19;;;14.50;77.13
9129;BME280;4599;50.906;6.786;2023-08-07T21:49:18;100327.66;;;14.46;76.56
9129;BME280;4599;50.906;6.786;2023-08-07T21:53:41;100327.38;;;14.39;77.24
9129;BME280;4599;50.906;6.786;2023-08-07T21:58:03;100310.78;;;14.23;77.53
9129;BME280;4599;50.906;6.786;2023-08-07T22:02:25;100320.84;;;14.26;76.91
9129;BME280;4599;50.906;6.786;2023-08-07T22:06:47;100306.59;;;14.22;77.76
9129;BME280;4599;50.906;6.786;2023-08-07T22:11:11;100307.41;;;14.32;77.13
9129;BME280;4599;50.906;6.786;2023-08-07T22:15:33;100306.59;;;14.22;78.48
9129;BME280;4599;50.906;6.786;2023-08-07T22:19:55;100304.94;;;14.21;78.32
9129;BME280;4599;50.906;6.786;2023-08-07T22:24:26;100303.31;;;14.10;77.98
9129;BME280;4599;50.906;6.786;2023-08-07T22:28:50;100298.94;;;13.91;79.41
9129;BME280;4599;50.906;6.786;2023-08-07T22:33:12;100298.53;;;13.96;78.74
9129;BME280;4599;50.906;6.786;2023-08-07T22:37:34;100303.13;;;13.92;79.01
9129;BME280;4599;50.906;6.786;2023-08-07T22:41:56;100300.53;;;13.73;79.62
9129;BME280;4599;50.906;6.786;2023-08-07T22:46:22;100293.47;;;13.75;78.91
9129;BME280;4599;50.906;6.786;2023-08-07T22:50:46;100296.59;;;13.39;80.33
9129;BME280;4599;50.906;6.786;2023-08-07T22:55:08;100292.25;;;13.39;80.22
9129;BME280;4599;50.906;6.786;2023-08-07T22:59:30;100283.94;;;13.06;81.79
9129;BME280;4599;50.906;6.786;2023-08-07T23:03:53;100283.69;;;13.09;81.10
9129;BME280;4599;50.906;6.786;2023-08-07T23:08:15;100282.94;;;12.97;81.91
9129;BME280;4599;50.906;6.786;2023-08-07T23:12:37;100288.28;;;12.84;82.99
9129;BME280;4599;50.906;6.786;2023-08-07T23:16:59;100278.00;;;12.84;82.33
9129;BME280;4599;50.906;6.786;2023-08-07T23:21:23;100267.44;;;12.87;81.91
9129;BME280;4599;50.906;6.786;2023-08-07T23:25:45;100262.81;;;12.81;81.86
9129;BME280;4599;50.906;6.786;2023-08-07T23:30:07;100272.44;;;12.68;82.53
9129;BME280;4599;50.906;6.786;2023-08-07T23:34:29;100264.56;;;12.60;82.21